createdAt,value
2018-02-15T00:01:58.279Z,0.21
2018-02-15T00:04:25.944Z,0.21
2018-02-15T00:06:53.607Z,0.26
2018-02-15T00:09:21.298Z,0.27
2018-02-15T00:11:48.971Z,0.24
2018-02-15T00:14:16.659Z,0.24
2018-02-15T00:16:44.324Z,0.33
2018-02-15T00:19:12.028Z,0.24
2018-02-15T00:21:39.698Z,0.28
2018-02-15T00:24:07.355Z,0.21
2018-02-15T00:26:35.036Z,0.26
2018-02-15T00:29:02.715Z,0.26
2018-02-15T00:31:30.513Z,0.22
2018-02-15T00:33:58.171Z,0.11
2018-02-15T00:36:26.040Z,-0.07
2018-02-15T00:38:53.710Z,0.10
2018-02-15T00:41:21.368Z,0.14
2018-02-15T00:43:49.060Z,0.07
2018-02-15T00:46:16.728Z,-0.02
2018-02-15T00:48:44.420Z,-0.13
2018-02-15T00:51:12.082Z,-0.03
2018-02-15T00:53:39.763Z,-0.01
2018-02-15T00:56:07.544Z,0.06
2018-02-15T00:58:35.206Z,0.14
2018-02-15T01:01:02.883Z,0.24
2018-02-15T01:03:30.544Z,0.24
2018-02-15T01:05:58.231Z,0.13
2018-02-15T01:08:25.908Z,0.03
2018-02-15T01:10:53.580Z,0.07
2018-02-15T01:13:21.270Z,0.01
2018-02-15T01:15:48.960Z,-0.03
2018-02-15T01:18:16.906Z,0.00
2018-02-15T01:20:44.569Z,0.05
2018-02-15T01:23:12.235Z,0.08
2018-02-15T01:25:40.027Z,0.03
2018-02-15T01:28:07.697Z,0.01
2018-02-15T01:30:35.394Z,-0.07
2018-02-15T01:33:03.067Z,-0.09
2018-02-15T01:35:30.900Z,-0.03
2018-02-15T01:37:58.575Z,-0.10
2018-02-15T01:40:26.273Z,-0.17
2018-02-15T01:42:53.964Z,-0.29
2018-02-15T01:45:21.634Z,-0.25
2018-02-15T01:47:49.335Z,-0.27
2018-02-15T01:50:17.073Z,-0.23
2018-02-15T01:52:45.143Z,-0.07
2018-02-15T01:55:12.814Z,0.03
2018-02-15T01:57:40.510Z,0.04
2018-02-15T02:00:08.240Z,0.09
2018-02-15T02:02:35.900Z,0.19
2018-02-15T02:05:03.594Z,0.20
2018-02-15T02:07:31.272Z,0.07
2018-02-15T02:09:59.346Z,0.16
2018-02-15T02:14:53.976Z,0.13
2018-02-15T02:17:21.676Z,-0.02
2018-02-15T02:19:49.348Z,-0.03
2018-02-15T02:22:17.040Z,0.09
2018-02-15T02:24:44.708Z,0.05
2018-02-15T02:27:12.576Z,0.16
2018-02-15T02:29:40.239Z,0.07
2018-02-15T02:32:07.912Z,0.10
2018-02-15T02:34:35.614Z,0.09
2018-02-15T02:37:03.292Z,0.09
2018-02-15T02:39:30.984Z,0.16
2018-02-15T02:41:58.648Z,0.11
2018-02-15T02:44:26.512Z,0.10
2018-02-15T02:46:54.175Z,0.11
2018-02-15T02:49:21.848Z,0.08
2018-02-15T02:51:49.640Z,0.13
2018-02-15T02:54:17.319Z,0.25
2018-02-15T02:56:45.781Z,0.12
2018-02-15T02:59:13.449Z,0.15
2018-02-15T03:01:41.484Z,-0.05
2018-02-15T03:04:09.152Z,0.08
2018-02-15T03:06:36.821Z,0.09
2018-02-15T03:09:04.572Z,0.14
2018-02-15T03:11:32.236Z,0.20
2018-02-15T03:13:59.928Z,0.22
2018-02-15T03:16:27.619Z,0.30
2018-02-15T03:18:55.503Z,0.28
2018-02-15T03:21:23.180Z,0.30
2018-02-15T03:23:50.851Z,0.31
2018-02-15T03:26:18.547Z,-0.03
2018-02-15T03:28:46.215Z,-0.04
2018-02-15T03:31:13.917Z,0.06
2018-02-15T03:33:41.710Z,0.11
2018-02-15T03:36:09.575Z,0.03
2018-02-15T03:38:37.255Z,-0.08
2018-02-15T03:41:04.927Z,-0.02
2018-02-15T03:43:32.620Z,0.06
2018-02-15T03:46:00.307Z,-0.02
2018-02-15T03:48:27.997Z,0.19
2018-02-15T03:50:55.683Z,0.08
2018-02-15T03:53:23.504Z,0.23
2018-02-15T03:55:51.162Z,0.32
2018-02-15T03:58:18.835Z,0.24
2018-02-15T04:00:46.518Z,0.35
2018-02-15T04:03:14.208Z,0.48
2018-02-15T04:05:41.911Z,0.50
2018-02-15T04:08:09.583Z,0.70
2018-02-15T04:10:37.619Z,0.75
2018-02-15T04:13:05.287Z,0.76
2018-02-15T04:15:32.956Z,0.73
2018-02-15T04:18:00.750Z,0.80
2018-02-15T04:20:28.417Z,0.83
2018-02-15T04:22:56.116Z,0.51
2018-02-15T04:25:23.784Z,0.64
2018-02-15T04:27:51.735Z,0.80
2018-02-15T04:30:19.403Z,0.65
2018-02-15T04:32:47.094Z,0.70
2018-02-15T04:35:14.783Z,0.67
2018-02-15T04:37:42.557Z,0.69
2018-02-15T04:40:10.251Z,0.81
2018-02-15T04:42:37.914Z,1.01
2018-02-15T04:45:05.750Z,0.95
2018-02-15T04:47:33.459Z,0.68
2018-02-15T04:50:01.136Z,0.67
2018-02-15T04:52:28.863Z,0.85
2018-02-15T04:54:56.531Z,0.91
2018-02-15T04:57:24.217Z,0.90
2018-02-15T04:59:51.885Z,0.98
2018-02-15T05:02:19.883Z,1.03
2018-02-15T05:04:47.547Z,0.94
2018-02-15T05:07:15.216Z,0.86
2018-02-15T05:09:42.904Z,0.89
2018-02-15T05:12:10.567Z,0.75
2018-02-15T05:14:38.260Z,0.59
2018-02-15T05:17:05.969Z,0.80
2018-02-15T05:19:33.684Z,0.87
2018-02-15T05:22:01.367Z,0.80
2018-02-15T05:24:29.045Z,0.70
2018-02-15T05:26:56.728Z,0.72
2018-02-15T05:29:24.400Z,0.91
2018-02-15T05:31:52.146Z,0.91
2018-02-15T05:34:19.912Z,0.81
2018-02-15T05:36:47.772Z,0.88
2018-02-15T05:39:15.444Z,0.82
2018-02-15T05:41:43.103Z,0.77
2018-02-15T05:44:10.866Z,0.74
2018-02-15T05:46:38.538Z,0.88
2018-02-15T05:49:06.224Z,0.95
2018-02-15T05:51:33.887Z,1.03
2018-02-15T05:54:01.817Z,1.07
2018-02-15T05:56:29.496Z,1.06
2018-02-15T05:58:57.166Z,1.07
2018-02-15T06:01:24.911Z,1.10
2018-02-15T06:03:52.580Z,1.16
2018-02-15T06:06:20.279Z,0.88
2018-02-15T06:08:47.951Z,0.94
2018-02-15T06:11:15.755Z,0.97
2018-02-15T06:13:43.518Z,1.05
2018-02-15T06:16:11.184Z,1.02
2018-02-15T06:18:38.871Z,1.08
2018-02-15T06:21:06.539Z,1.00
2018-02-15T06:23:34.678Z,1.04
2018-02-15T06:26:02.345Z,1.17
2018-02-15T06:28:30.013Z,1.16
2018-02-15T06:30:57.703Z,1.18
2018-02-15T06:33:25.365Z,1.23
2018-02-15T06:35:53.411Z,1.28
2018-02-15T06:38:21.089Z,1.19
2018-02-15T06:40:48.835Z,1.20
2018-02-15T06:43:16.527Z,1.25
2018-02-15T06:45:44.183Z,1.06
2018-02-15T06:48:11.871Z,1.14
2018-02-15T06:50:39.535Z,1.29
2018-02-15T06:53:07.215Z,1.19
2018-02-15T06:55:34.896Z,1.34
2018-02-15T06:58:02.593Z,1.42
2018-02-15T07:00:30.265Z,1.42
2018-02-15T07:02:57.988Z,1.37
2018-02-15T07:05:25.671Z,1.21
2018-02-15T07:07:53.341Z,1.09
2018-02-15T07:10:21.033Z,1.05
2018-02-15T07:12:48.750Z,1.13
2018-02-15T07:15:16.489Z,1.24
2018-02-15T07:17:44.140Z,1.06
2018-02-15T07:20:11.927Z,1.24
2018-02-15T07:22:39.607Z,1.29
2018-02-15T07:25:07.275Z,1.32
2018-02-15T07:27:34.962Z,1.50
2018-02-15T07:30:02.691Z,1.46
2018-02-15T07:32:30.382Z,1.30
2018-02-15T07:34:58.055Z,1.22
2018-02-15T07:37:25.783Z,1.48
2018-02-15T07:39:53.479Z,1.20
2018-02-15T07:42:21.167Z,1.07
2018-02-15T07:44:48.868Z,1.40
2018-02-15T07:47:16.552Z,1.34
2018-02-15T07:49:44.264Z,1.33
2018-02-15T07:52:11.928Z,1.57
2018-02-15T07:54:39.647Z,1.53
2018-02-15T07:57:07.386Z,1.66
2018-02-15T07:59:35.154Z,1.58
2018-02-15T08:02:02.848Z,1.59
2018-02-15T08:04:30.544Z,1.66
2018-02-15T08:06:58.228Z,1.77
2018-02-15T08:09:25.907Z,1.85
2018-02-15T08:11:53.664Z,1.94
2018-02-15T08:14:21.348Z,2.07
2018-02-15T08:16:49.021Z,2.01
2018-02-15T08:19:16.717Z,2.08
2018-02-15T08:21:44.400Z,2.04
2018-02-15T08:24:12.103Z,2.11
2018-02-15T08:26:39.780Z,2.16
2018-02-15T08:29:07.502Z,1.99
2018-02-15T08:31:35.267Z,1.96
2018-02-15T08:34:02.944Z,2.08
2018-02-15T08:36:30.641Z,2.11
2018-02-15T08:38:58.318Z,2.17
2018-02-15T08:41:26.013Z,2.16
2018-02-15T08:43:53.771Z,2.21
2018-02-15T08:46:21.842Z,2.06
2018-02-15T08:48:49.506Z,2.30
2018-02-15T08:51:17.192Z,2.33
2018-02-15T08:53:44.881Z,2.16
2018-02-15T08:56:12.547Z,2.34
2018-02-15T08:58:40.342Z,2.31
2018-02-15T09:01:08.006Z,2.48
2018-02-15T09:03:35.993Z,2.28
2018-02-15T09:06:03.667Z,2.44
2018-02-15T09:08:31.417Z,2.59
2018-02-15T09:10:59.409Z,2.75
2018-02-15T09:13:27.276Z,2.82
2018-02-15T09:15:54.974Z,2.77
2018-02-15T09:18:22.646Z,2.66
2018-02-15T09:20:50.647Z,2.78
2018-02-15T09:23:18.572Z,2.83
2018-02-15T09:25:46.215Z,2.88
2018-02-15T09:28:13.904Z,2.93
2018-02-15T09:30:41.588Z,2.95
2018-02-15T09:33:09.304Z,3.03
2018-02-15T09:35:36.983Z,3.00
2018-02-15T09:38:04.902Z,2.84
2018-02-15T09:40:32.899Z,3.07
2018-02-15T09:43:01.120Z,3.23
2018-02-15T09:45:28.801Z,3.31
2018-02-15T09:47:56.537Z,3.12
2018-02-15T09:50:24.257Z,3.18
2018-02-15T09:52:52.233Z,3.37
2018-02-15T09:55:20.207Z,3.24
2018-02-15T09:57:47.882Z,3.11
2018-02-15T10:00:15.795Z,3.39
2018-02-15T10:02:43.488Z,3.31
2018-02-15T10:05:11.159Z,3.50
2018-02-15T10:07:38.848Z,3.57
2018-02-15T10:10:07.187Z,3.62
2018-02-15T10:12:35.382Z,3.88
2018-02-15T10:15:03.347Z,3.85
2018-02-15T10:17:31.032Z,3.69
2018-02-15T10:19:58.727Z,3.90
2018-02-15T10:22:26.397Z,3.98
2018-02-15T10:24:54.115Z,3.87
2018-02-15T10:27:21.796Z,4.08
2018-02-15T10:29:49.506Z,4.11
2018-02-15T10:32:17.304Z,4.08
2018-02-15T10:34:45.030Z,4.10
2018-02-15T10:37:12.730Z,4.10
2018-02-15T10:39:40.488Z,4.14
2018-02-15T10:42:08.295Z,4.05
2018-02-15T10:44:36.310Z,3.86
2018-02-15T10:47:04.214Z,4.08
2018-02-15T10:49:31.889Z,4.25
2018-02-15T10:52:02.013Z,4.12
2018-02-15T10:54:29.958Z,3.99
2018-02-15T10:56:57.627Z,3.90
2018-02-15T10:59:25.324Z,3.85
2018-02-15T11:01:58.593Z,3.85
2018-02-15T11:04:31.895Z,3.72
2018-02-15T11:06:59.582Z,3.85
2018-02-15T11:09:27.454Z,3.85
2018-02-15T11:11:55.271Z,3.76
2018-02-15T11:14:23.369Z,3.78
2018-02-15T11:16:51.954Z,3.84
2018-02-15T11:19:19.602Z,3.97
2018-02-15T11:21:47.300Z,4.05
2018-02-15T11:24:14.966Z,4.14
2018-02-15T11:26:42.824Z,4.07
2018-02-15T11:29:10.495Z,4.18
2018-02-15T11:31:38.164Z,4.21
2018-02-15T11:34:05.968Z,3.95
2018-02-15T11:36:33.652Z,4.05
2018-02-15T11:39:01.339Z,4.05
2018-02-15T11:41:29.344Z,3.93
2018-02-15T11:43:57.850Z,3.86
2018-02-15T11:46:25.523Z,3.79
2018-02-15T11:48:53.200Z,3.86
2018-02-15T11:51:20.960Z,3.84
2018-02-15T11:53:48.632Z,3.93
2018-02-15T11:56:16.312Z,3.98
2018-02-15T11:58:43.971Z,3.92
2018-02-15T12:01:12.039Z,4.02
2018-02-15T12:03:39.708Z,4.05
2018-02-15T12:06:07.374Z,4.11
2018-02-15T12:08:35.067Z,3.95
2018-02-15T12:11:02.923Z,3.94
2018-02-15T12:13:31.153Z,4.03
2018-02-15T12:15:58.843Z,3.99
2018-02-15T12:18:26.606Z,3.93
2018-02-15T12:20:54.306Z,4.03
2018-02-15T12:23:21.975Z,4.03
2018-02-15T12:25:49.957Z,4.28
2018-02-15T12:28:17.625Z,4.37
2018-02-15T12:30:45.294Z,4.08
2018-02-15T12:33:13.000Z,4.17
2018-02-15T12:35:40.707Z,4.26
2018-02-15T12:38:08.518Z,4.11
2018-02-15T12:40:36.183Z,4.19
2018-02-15T12:43:04.395Z,3.97
2018-02-15T12:45:32.082Z,4.04
2018-02-15T12:48:03.831Z,4.02
2018-02-15T12:50:31.745Z,4.11
2018-02-15T12:52:59.419Z,4.20
2018-02-15T12:55:27.256Z,4.22
2018-02-15T12:57:55.001Z,4.27
2018-02-15T13:00:22.730Z,4.25
2018-02-15T13:02:50.411Z,4.12
2018-02-15T13:05:18.091Z,4.05
2018-02-15T13:07:45.802Z,3.93
2018-02-15T13:10:13.463Z,3.92
2018-02-15T13:12:52.767Z,3.79
2018-02-15T13:15:32.247Z,3.60
2018-02-15T13:17:59.919Z,3.65
2018-02-15T13:20:29.077Z,3.60
2018-02-15T13:22:56.807Z,3.58
2018-02-15T13:25:24.474Z,3.66
2018-02-15T13:28:04.021Z,3.54
2018-02-15T13:30:31.684Z,3.30
2018-02-15T13:32:59.572Z,3.24
2018-02-15T13:35:27.235Z,3.06
2018-02-15T13:37:54.935Z,2.94
2018-02-15T13:40:22.662Z,2.93
2018-02-15T13:42:50.360Z,2.89
2018-02-15T13:47:45.054Z,2.94
2018-02-15T13:50:12.782Z,2.92
2018-02-15T13:52:40.439Z,3.09
2018-02-15T13:55:08.102Z,3.02
2018-02-15T13:57:35.795Z,3.22
2018-02-15T14:00:03.474Z,3.17
2018-02-15T14:02:31.172Z,3.07
2018-02-15T14:04:59.206Z,3.03
2018-02-15T14:07:27.047Z,2.91
2018-02-15T14:10:04.971Z,2.88
2018-02-15T14:12:40.425Z,2.69
2018-02-15T14:15:08.779Z,2.51
2018-02-15T14:17:36.495Z,2.66
2018-02-15T14:20:04.209Z,2.62
2018-02-15T14:22:31.868Z,2.62
2018-02-15T14:24:59.568Z,2.48
2018-02-15T14:27:27.252Z,2.55
2018-02-15T14:29:55.158Z,2.63
2018-02-15T14:32:23.037Z,2.58
2018-02-15T14:34:50.717Z,2.68
2018-02-15T14:37:18.791Z,2.66
2018-02-15T14:39:46.660Z,2.65
2018-02-15T14:42:14.356Z,2.66
2018-02-15T14:44:42.020Z,2.74
2018-02-15T14:47:10.152Z,2.86
2018-02-15T14:49:37.826Z,2.65
2018-02-15T14:52:05.779Z,2.85
2018-02-15T14:54:33.856Z,2.67
2018-02-15T14:57:01.521Z,2.85
2018-02-15T14:59:29.224Z,2.95
2018-02-15T15:01:56.926Z,3.02
2018-02-15T15:04:24.784Z,2.96
2018-02-15T15:06:53.057Z,2.71
2018-02-15T15:09:20.959Z,2.73
2018-02-15T15:11:48.645Z,2.68
2018-02-15T15:14:16.312Z,2.77
2018-02-15T15:16:47.584Z,2.67
2018-02-15T15:19:15.636Z,2.54
2018-02-15T15:21:43.339Z,2.67
2018-02-15T15:24:11.046Z,2.68
2018-02-15T15:26:38.742Z,2.64
2018-02-15T15:29:06.443Z,2.76
2018-02-15T15:31:34.117Z,2.71
2018-02-15T15:34:01.959Z,2.45
2018-02-15T15:36:29.747Z,2.54
2018-02-15T15:38:57.691Z,2.62
2018-02-15T15:41:25.890Z,2.53
2018-02-15T15:43:53.583Z,2.39
2018-02-15T15:46:21.300Z,2.56
2018-02-15T15:48:48.966Z,2.68
2018-02-15T15:51:16.715Z,2.57
2018-02-15T15:53:44.488Z,2.57
2018-02-15T15:56:12.150Z,2.42
2018-02-15T15:58:39.831Z,2.35
2018-02-15T16:01:07.508Z,2.38
2018-02-15T16:03:35.199Z,2.45
2018-02-15T16:06:02.878Z,2.51
2018-02-15T16:08:31.198Z,2.53
2018-02-15T16:10:59.069Z,2.43
2018-02-15T16:13:26.766Z,2.50
2018-02-15T16:15:54.458Z,2.58
2018-02-15T16:18:22.136Z,2.56
2018-02-15T16:20:49.827Z,2.33
2018-02-15T16:23:17.498Z,2.50
2018-02-15T16:25:45.633Z,2.62
2018-02-15T16:28:13.296Z,2.58
2018-02-15T16:30:40.966Z,2.67
2018-02-15T16:33:08.664Z,2.73
2018-02-15T16:35:36.351Z,2.78
2018-02-15T16:38:04.372Z,2.71
2018-02-15T16:40:32.284Z,2.71
2018-02-15T16:43:00.180Z,2.86
2018-02-15T16:45:27.865Z,2.81
2018-02-15T16:47:55.531Z,2.70
2018-02-15T16:50:23.249Z,2.85
2018-02-15T16:52:50.929Z,2.71
2018-02-15T16:55:18.627Z,2.81
2018-02-15T16:57:46.323Z,2.73
2018-02-15T17:00:14.431Z,2.82
2018-02-15T17:02:42.111Z,2.92
2018-02-15T17:05:09.772Z,2.97
2018-02-15T17:07:37.658Z,2.86
2018-02-15T17:10:05.615Z,2.75
2018-02-15T17:12:33.311Z,2.77
2018-02-15T17:15:00.975Z,2.78
2018-02-15T17:17:28.885Z,2.72
2018-02-15T17:19:56.547Z,2.68
2018-02-15T17:22:24.216Z,2.55
2018-02-15T17:24:51.899Z,2.69
2018-02-15T17:27:19.587Z,2.75
2018-02-15T17:29:47.316Z,2.76
2018-02-15T17:32:14.992Z,2.64
2018-02-15T17:34:42.657Z,2.74
2018-02-15T17:37:10.669Z,2.84
2018-02-15T17:39:38.327Z,2.83
2018-02-15T17:42:06.020Z,2.66
2018-02-15T17:44:33.689Z,2.74
2018-02-15T17:47:01.656Z,2.70
2018-02-15T17:49:29.387Z,2.79
2018-02-15T17:51:57.034Z,3.04
2018-02-15T17:54:24.721Z,2.97
2018-02-15T17:56:52.451Z,3.02
2018-02-15T17:59:20.134Z,3.02
2018-02-15T18:01:47.799Z,3.12
2018-02-15T18:04:15.547Z,3.04
2018-02-15T18:06:43.224Z,2.96
2018-02-15T18:09:10.891Z,3.05
2018-02-15T18:11:38.581Z,3.21
2018-02-15T18:14:06.242Z,3.13
2018-02-15T18:16:34.785Z,3.14
2018-02-15T18:19:02.459Z,3.08
2018-02-15T18:21:30.141Z,3.11
2018-02-15T18:23:57.804Z,3.21
2018-02-15T18:26:25.888Z,3.22
2018-02-15T18:28:53.563Z,3.25
2018-02-15T18:31:21.240Z,3.39
2018-02-15T18:33:48.940Z,3.32
2018-02-15T18:36:16.611Z,3.21
2018-02-15T18:38:44.303Z,3.18
2018-02-15T18:41:11.981Z,3.19
2018-02-15T18:43:39.672Z,3.16
2018-02-15T18:46:07.348Z,3.10
2018-02-15T18:48:35.084Z,3.09
2018-02-15T18:51:02.760Z,3.12
2018-02-15T18:53:30.434Z,2.91
2018-02-15T18:55:58.137Z,3.00
2018-02-15T18:58:25.828Z,3.06
2018-02-15T19:00:53.520Z,3.05
2018-02-15T19:03:21.233Z,3.19
2018-02-15T19:05:49.311Z,3.16
2018-02-15T19:08:17.127Z,3.04
2018-02-15T19:10:44.824Z,3.09
2018-02-15T19:13:12.518Z,3.18
2018-02-15T19:15:40.215Z,3.19
2018-02-15T19:18:07.927Z,3.18
2018-02-15T19:20:35.605Z,3.23
2018-02-15T19:23:03.469Z,3.15
2018-02-15T19:25:31.156Z,3.12
2018-02-15T19:27:58.843Z,3.03
2018-02-15T19:30:26.557Z,3.06
2018-02-15T19:32:54.251Z,3.18
2018-02-15T19:35:21.948Z,3.16
2018-02-15T19:37:49.633Z,3.20
2018-02-15T19:40:17.337Z,3.09
2018-02-15T19:42:45.006Z,3.20
2018-02-15T19:45:14.545Z,3.21
2018-02-15T19:47:42.225Z,3.13
2018-02-15T19:50:09.891Z,3.06
2018-02-15T19:52:37.601Z,2.99
2018-02-15T19:55:05.278Z,2.92
2018-02-15T19:57:32.977Z,2.91
2018-02-15T20:00:00.655Z,3.10
2018-02-15T20:02:28.389Z,3.20
2018-02-15T20:04:56.121Z,3.19
2018-02-15T20:07:23.791Z,3.12
2018-02-15T20:09:51.485Z,3.14
2018-02-15T20:12:19.166Z,3.11
2018-02-15T20:14:46.874Z,3.11
2018-02-15T20:17:14.569Z,3.03
2018-02-15T20:19:42.379Z,3.01
2018-02-15T20:22:10.731Z,2.95
2018-02-15T20:24:38.395Z,3.02
2018-02-15T20:27:11.667Z,3.13
2018-02-15T20:29:39.336Z,3.16
2018-02-15T20:32:07.039Z,3.16
2018-02-15T20:34:34.708Z,3.23
2018-02-15T20:37:02.408Z,3.16
2018-02-15T20:39:35.575Z,3.21
2018-02-15T20:42:03.276Z,3.27
2018-02-15T20:44:30.967Z,3.23
2018-02-15T20:46:58.648Z,3.26
2018-02-15T20:49:32.001Z,3.26
2018-02-15T20:52:05.136Z,3.26
2018-02-15T20:54:38.408Z,3.25
2018-02-15T20:57:06.084Z,3.16
2018-02-15T20:59:33.785Z,3.19
2018-02-15T21:02:01.471Z,3.25
2018-02-15T21:04:29.551Z,3.29
2018-02-15T21:06:57.224Z,3.36
2018-02-15T21:09:24.900Z,3.29
2018-02-15T21:11:52.595Z,3.34
2018-02-15T21:14:20.293Z,3.49
2018-02-15T21:16:48.003Z,3.45
2018-02-15T21:19:15.680Z,3.49
2018-02-15T21:21:43.489Z,3.36
2018-02-15T21:24:11.179Z,3.39
2018-02-15T21:26:38.886Z,3.52
2018-02-15T21:29:06.588Z,3.49
2018-02-15T21:31:34.266Z,3.34
2018-02-15T21:34:01.985Z,3.58
2018-02-15T21:36:29.666Z,3.61
2018-02-15T21:38:57.400Z,3.60
2018-02-15T21:41:25.070Z,3.61
2018-02-15T21:43:53.031Z,3.67
2018-02-15T21:46:20.727Z,3.60
2018-02-15T21:48:48.395Z,3.73
2018-02-15T21:51:16.098Z,3.57
2018-02-15T21:53:43.774Z,3.70
2018-02-15T21:56:11.671Z,3.63
2018-02-15T21:58:39.355Z,3.78
2018-02-15T22:01:07.106Z,3.69
2018-02-15T22:03:34.801Z,3.74
2018-02-15T22:06:02.483Z,3.60
2018-02-15T22:08:30.173Z,3.86
2018-02-15T22:10:57.839Z,3.79
2018-02-15T22:13:25.571Z,3.87
2018-02-15T22:15:53.250Z,3.97
2018-02-15T22:18:20.924Z,4.07
2018-02-15T22:20:48.635Z,3.99
2018-02-15T22:23:16.326Z,4.10
2018-02-15T22:25:44.024Z,4.13
2018-02-15T22:28:11.701Z,4.18
2018-02-15T22:30:39.520Z,4.11
2018-02-15T22:33:07.224Z,4.13
2018-02-15T22:35:34.888Z,4.19
2018-02-15T22:38:02.583Z,4.18
2018-02-15T22:40:30.263Z,4.19
2018-02-15T22:42:57.954Z,4.18
2018-02-15T22:45:25.651Z,4.22
2018-02-15T22:47:53.439Z,4.38
2018-02-15T22:50:21.121Z,4.36
2018-02-15T22:52:48.801Z,4.45
2018-02-15T22:55:16.506Z,4.37
2018-02-15T22:57:44.172Z,4.49
2018-02-15T23:00:11.860Z,4.49
2018-02-15T23:02:39.543Z,4.54
2018-02-15T23:05:07.536Z,4.47
2018-02-15T23:07:35.207Z,4.47
2018-02-15T23:10:02.879Z,4.36
2018-02-15T23:12:30.591Z,4.34
2018-02-15T23:14:58.255Z,4.29
2018-02-15T23:17:25.961Z,4.21
2018-02-15T23:19:53.640Z,4.35
2018-02-15T23:22:21.439Z,4.33
2018-02-15T23:24:49.113Z,4.30
2018-02-15T23:27:16.792Z,4.30
2018-02-15T23:29:44.493Z,4.17
2018-02-15T23:32:12.167Z,4.16
2018-02-15T23:34:39.870Z,4.13
2018-02-15T23:37:07.569Z,4.10
2018-02-15T23:39:35.301Z,4.17
2018-02-15T23:42:02.975Z,4.09
2018-02-15T23:44:30.676Z,4.16
2018-02-15T23:46:58.383Z,4.21
2018-02-15T23:49:26.067Z,4.25
2018-02-15T23:51:53.760Z,4.18
2018-02-15T23:54:21.441Z,4.21
2018-02-15T23:56:49.159Z,4.33
2018-02-15T23:59:16.833Z,4.24
